Terminal Aerodrome Forecast
Issued by NWS

Home | Current Version | Previous Version | Text Only | Print | Product List | Glossary On
Versions: 1 2 3 4 5 6 7 8 9 10 11 12
000
FTUS41 KCAR 272320
TAFHUL
TAF
KHUL 272320Z 2800/2824 VRB05KT 6SM -SHRA SCT030 OVC050
      TEMPO 2800/2803 3SM +SHRA OVC030
     FM280300 VRB03KT 5SM -SHRA BKN025 OVC035
     FM280800 19004KT 5SM BR OVC005
     FM281500 26005KT P6SM OVC040=

USA.gov is the U.S. government's official web portal to all federal, state and local government web resources and services.